Time;durP1;ratioP1;P1;durP2;ratioP2;P2;SDS_P1;SDS_P2;PMS_P1;PMS_P2;Temp;Humidity;BMP_temperature;BMP_pressure;BME280_temperature;BME280_humidity;BME280_pressure;Samples;Min_cycle;Max_cycle;Signal;HPM_P1;HPM_P2
2021/01/23 00:02:13;;;;;;;7.73;2.10;;;4.50;99.90;;;;;;5053255;28;20223;-66
2021/01/23 00:04:40;;;;;;;6.03;1.47;;;4.50;99.90;;;;;;5053425;28;20231;-65
2021/01/23 00:07:07;;;;;;;6.80;1.33;;;4.50;99.90;;;;;;5053030;28;20230;-65
2021/01/23 00:09:34;;;;;;;7.27;1.50;;;4.50;99.90;;;;;;5052909;28;20191;-68
2021/01/23 00:12:01;;;;;;;6.67;1.80;;;4.50;99.90;;;;;;5053199;28;20303;-63
2021/01/23 00:14:28;;;;;;;3.60;1.40;;;4.40;99.90;;;;;;5052948;28;20230;-63
2021/01/23 00:16:54;;;;;;;4.53;1.50;;;4.50;99.90;;;;;;5052817;28;20660;-65
2021/01/23 00:19:20;;;;;;;5.67;1.20;;;4.50;99.90;;;;;;5052317;28;20223;-64
2021/01/23 00:21:47;;;;;;;4.53;1.50;;;4.40;99.90;;;;;;5052756;28;20235;-63
2021/01/23 00:24:14;;;;;;;5.10;1.50;;;4.50;99.90;;;;;;5052595;28;20203;-65
2021/01/23 00:26:43;;;;;;;4.53;1.43;;;4.50;99.90;;;;;;5053087;28;20336;-65
2021/01/23 00:29:11;;;;;;;3.57;1.30;;;4.50;99.90;;;;;;5052357;28;20541;-64
2021/01/23 00:31:38;;;;;;;4.60;1.20;;;4.50;99.90;;;;;;5052492;28;20226;-64
2021/01/23 00:34:04;;;;;;;4.93;1.50;;;4.50;99.90;;;;;;5052055;28;20215;-65
2021/01/23 00:36:30;;;;;;;5.40;1.60;;;4.50;99.90;;;;;;5052601;28;20253;-64
2021/01/23 00:38:57;;;;;;;6.83;1.63;;;4.50;99.90;;;;;;5052344;28;20223;-66
2021/01/23 00:41:26;;;;;;;3.50;1.10;;;4.50;99.90;;;;;;5052398;28;20664;-64
2021/01/23 00:43:53;;;;;;;5.43;1.40;;;4.50;99.90;;;;;;5052849;28;20184;-63
2021/01/23 00:46:21;;;;;;;4.00;1.10;;;4.50;99.90;;;;;;5052080;28;20279;-65
2021/01/23 00:48:47;;;;;;;3.10;1.37;;;4.50;99.90;;;;;;5051734;28;20249;-65
2021/01/23 00:51:14;;;;;;;4.43;1.60;;;4.50;99.90;;;;;;5052218;28;20689;-64
2021/01/23 00:53:41;;;;;;;3.20;1.17;;;4.50;99.90;;;;;;5052115;28;20212;-63
2021/01/23 00:56:10;;;;;;;5.07;1.50;;;4.60;99.90;;;;;;5052302;28;20273;-65
2021/01/23 00:58:37;;;;;;;2.73;1.20;;;4.60;99.90;;;;;;5052158;28;20203;-63
2021/01/23 01:01:04;;;;;;;3.50;1.10;;;4.60;99.90;;;;;;5051826;28;20287;-66
2021/01/23 01:03:31;;;;;;;5.03;1.20;;;4.60;99.90;;;;;;5052215;28;20357;-65
2021/01/23 01:05:57;;;;;;;4.23;1.00;;;4.60;99.90;;;;;;5051668;28;20580;-64
2021/01/23 01:08:24;;;;;;;1.70;0.83;;;4.60;99.90;;;;;;5051670;28;20191;-66
2021/01/23 01:10:51;;;;;;;4.53;1.10;;;4.60;99.90;;;;;;5051721;28;20227;-65
2021/01/23 01:13:18;;;;;;;3.93;1.03;;;4.60;99.90;;;;;;5051583;28;20231;-66
2021/01/23 01:15:45;;;;;;;7.40;1.50;;;4.60;99.90;;;;;;5051799;28;20195;-65
2021/01/23 01:18:12;;;;;;;3.37;1.20;;;4.60;99.90;;;;;;5051644;28;20191;-66
2021/01/23 01:20:39;;;;;;;3.37;1.10;;;4.60;99.90;;;;;;5051895;28;20290;-64
2021/01/23 01:23:06;;;;;;;2.20;1.00;;;4.60;99.90;;;;;;5051190;28;20331;-65
2021/01/23 01:25:32;;;;;;;5.77;1.27;;;4.50;99.90;;;;;;5051592;28;20245;-65
2021/01/23 01:27:58;;;;;;;1.97;1.00;;;4.50;99.90;;;;;;5051494;28;20290;-65
2021/01/23 01:30:25;;;;;;;3.73;1.17;;;4.50;99.90;;;;;;5050873;28;20210;-65
2021/01/23 01:32:52;;;;;;;3.50;1.00;;;4.50;99.90;;;;;;5050438;28;20664;-66
2021/01/23 01:35:19;;;;;;;3.73;1.10;;;4.50;99.90;;;;;;5051405;28;20719;-64
2021/01/23 01:37:45;;;;;;;3.47;1.20;;;4.50;99.90;;;;;;5051399;28;20231;-65
2021/01/23 01:40:14;;;;;;;4.13;0.90;;;4.50;99.90;;;;;;5051005;28;20230;-65
2021/01/23 01:42:40;;;;;;;5.63;1.00;;;4.50;99.90;;;;;;5051042;28;20283;-67
2021/01/23 01:45:07;;;;;;;3.93;1.13;;;4.40;99.90;;;;;;5051699;28;20191;-66
2021/01/23 01:47:34;;;;;;;3.00;0.90;;;4.50;99.90;;;;;;5051021;28;20199;-65
2021/01/23 01:50:02;;;;;;;2.17;1.00;;;4.50;99.90;;;;;;5050850;28;20648;-64
2021/01/23 01:52:29;;;;;;;2.57;0.90;;;4.50;99.90;;;;;;5051290;28;20589;-63
2021/01/23 01:54:56;;;;;;;3.43;1.23;;;4.50;99.90;;;;;;5050743;28;20309;-63
2021/01/23 01:57:22;;;;;;;2.40;0.80;;;4.50;99.90;;;;;;5051553;28;20199;-62
2021/01/23 01:59:49;;;;;;;4.07;1.17;;;4.60;99.90;;;;;;5051093;28;20235;-64
2021/01/23 02:02:38;;;;;;;3.97;1.17;;;4.60;99.90;;;;;;5051021;28;20247;-63
2021/01/23 02:05:09;;;;;;;3.20;1.13;;;4.60;99.90;;;;;;5050907;28;20207;-65
2021/01/23 02:07:45;;;;;;;6.40;1.23;;;4.60;99.90;;;;;;5050706;28;20216;-63
2021/01/23 02:10:27;;;;;;;2.33;0.80;;;4.70;99.90;;;;;;5049831;28;20187;-64
2021/01/23 02:13:09;;;;;;;5.70;1.33;;;4.60;99.90;;;;;;5050872;28;20188;-64
2021/01/23 02:15:42;;;;;;;4.43;1.17;;;4.60;99.90;;;;;;5050238;28;20227;-63
2021/01/23 02:18:12;;;;;;;4.90;1.10;;;4.50;99.90;;;;;;5050390;28;20207;-62
2021/01/23 02:21:05;;;;;;;5.57;1.33;;;4.60;99.90;;;;;;5049969;28;20207;-63
2021/01/23 02:23:37;;;;;;;5.20;1.33;;;4.50;99.90;;;;;;5044293;28;20211;-64
2021/01/23 02:26:07;;;;;;;4.13;1.00;;;4.50;99.90;;;;;;5050053;28;20191;-65
2021/01/23 02:29:03;;;;;;;4.33;1.30;;;4.50;99.90;;;;;;5049929;28;20280;-64
2021/01/23 02:31:34;;;;;;;2.40;1.30;;;4.50;99.90;;;;;;5038017;28;20251;-62
2021/01/23 02:34:02;;;;;;;5.33;1.20;;;4.50;99.90;;;;;;5050392;28;20269;-65
2021/01/23 02:36:30;;;;;;;3.60;1.00;;;4.50;99.90;;;;;;5050469;28;20199;-63
2021/01/23 02:38:57;;;;;;;5.27;1.30;;;4.50;99.90;;;;;;5050165;28;20238;-66
2021/01/23 02:41:24;;;;;;;3.93;1.20;;;4.50;99.90;;;;;;5050239;28;20227;-63
2021/01/23 02:43:50;;;;;;;5.50;1.57;;;4.50;99.90;;;;;;5053824;28;20622;-65
2021/01/23 02:46:18;;;;;;;3.07;1.07;;;4.50;99.90;;;;;;5053903;28;20190;-65
2021/01/23 02:48:47;;;;;;;3.93;1.10;;;4.40;99.90;;;;;;5053673;28;20311;-66
2021/01/23 02:51:23;;;;;;;5.73;1.30;;;4.40;99.90;;;;;;5054324;28;20710;-65
2021/01/23 02:53:52;;;;;;;3.00;1.27;;;4.50;99.90;;;;;;5054285;28;20230;-65
2021/01/23 02:56:24;;;;;;;4.60;1.40;;;4.50;99.90;;;;;;5054260;28;20231;-64
2021/01/23 02:58:53;;;;;;;5.67;1.30;;;4.50;99.90;;;;;;5034801;28;20645;-66
2021/01/23 03:01:22;;;;;;;3.67;1.00;;;4.50;99.90;;;;;;5040591;28;20246;-65
2021/01/23 03:03:54;;;;;;;3.90;1.30;;;4.60;99.90;;;;;;5054312;28;20235;-63
2021/01/23 03:06:20;;;;;;;5.23;1.47;;;4.60;99.90;;;;;;5054268;28;20215;-65
2021/01/23 03:08:47;;;;;;;4.60;1.40;;;4.60;99.90;;;;;;5054199;28;20206;-65
2021/01/23 03:11:13;;;;;;;3.20;1.10;;;4.60;99.90;;;;;;5053785;28;20218;-64
2021/01/23 03:13:39;;;;;;;3.80;1.67;;;4.60;99.90;;;;;;5053927;28;20216;-65
2021/01/23 03:16:06;;;;;;;3.70;1.30;;;4.60;99.90;;;;;;5053535;28;20659;-63
2021/01/23 03:18:33;;;;;;;4.33;1.70;;;4.60;99.90;;;;;;5053922;28;20217;-62
2021/01/23 03:21:00;;;;;;;3.27;1.30;;;4.60;99.90;;;;;;5053427;28;20199;-65
2021/01/23 03:23:27;;;;;;;4.00;1.10;;;4.60;99.90;;;;;;5052649;28;20247;-64
2021/01/23 03:25:53;;;;;;;3.83;1.10;;;4.50;99.90;;;;;;5053419;28;20231;-65
2021/01/23 03:28:20;;;;;;;4.90;1.30;;;4.60;99.90;;;;;;5053603;28;20278;-63
2021/01/23 03:30:47;;;;;;;2.53;1.00;;;4.60;99.90;;;;;;5053069;28;20607;-65
2021/01/23 03:33:13;;;;;;;2.27;0.90;;;4.50;99.90;;;;;;5053661;28;20290;-63
2021/01/23 03:35:40;;;;;;;2.03;0.83;;;4.50;99.90;;;;;;5053448;28;20713;-64
2021/01/23 03:38:08;;;;;;;2.57;0.93;;;4.50;99.90;;;;;;5053638;28;20227;-66
2021/01/23 03:40:34;;;;;;;5.77;1.00;;;4.50;99.90;;;;;;5053680;28;20287;-62
2021/01/23 03:43:01;;;;;;;5.17;1.03;;;4.40;99.90;;;;;;5053244;28;20243;-63
2021/01/23 03:45:27;;;;;;;2.17;0.70;;;4.30;99.90;;;;;;5053213;28;20538;-63
2021/01/23 03:47:54;;;;;;;2.30;0.87;;;4.30;99.90;;;;;;5052941;28;20215;-64
2021/01/23 03:50:20;;;;;;;2.33;0.70;;;4.30;99.90;;;;;;5052730;28;20203;-64
2021/01/23 03:52:47;;;;;;;3.90;1.07;;;4.30;99.90;;;;;;5052657;28;20202;-64
2021/01/23 03:55:14;;;;;;;3.80;0.93;;;4.30;99.90;;;;;;5051864;28;20222;-65
2021/01/23 03:57:40;;;;;;;4.40;1.07;;;4.20;99.90;;;;;;5052473;28;20242;-65
2021/01/23 04:00:08;;;;;;;5.17;1.30;;;4.20;99.90;;;;;;5052911;28;20535;-63
2021/01/23 04:02:35;;;;;;;4.20;1.27;;;4.20;99.90;;;;;;5052986;28;20216;-64
2021/01/23 04:05:02;;;;;;;3.90;1.17;;;4.20;99.90;;;;;;5053140;28;20251;-65
2021/01/23 04:07:29;;;;;;;4.80;1.40;;;4.30;99.90;;;;;;5052627;28;20239;-63
2021/01/23 04:09:55;;;;;;;4.93;1.40;;;4.30;99.90;;;;;;5052868;28;20204;-64
2021/01/23 04:12:22;;;;;;;4.10;1.37;;;4.30;99.90;;;;;;5052893;28;20211;-65
2021/01/23 04:14:49;;;;;;;3.83;1.27;;;4.30;99.90;;;;;;5052838;28;20234;-64
2021/01/23 04:17:15;;;;;;;4.03;1.10;;;4.30;99.90;;;;;;5052339;28;20295;-62
2021/01/23 04:19:42;;;;;;;3.13;1.40;;;4.30;99.90;;;;;;5052143;28;20235;-64
2021/01/23 04:22:08;;;;;;;2.53;1.10;;;4.30;99.90;;;;;;5052188;28;20650;-65
2021/01/23 04:24:35;;;;;;;2.17;1.30;;;4.30;99.90;;;;;;5051999;28;20590;-66
2021/01/23 04:27:01;;;;;;;3.53;1.50;;;4.30;99.90;;;;;;5052234;28;20264;-65
2021/01/23 04:29:29;;;;;;;4.07;1.40;;;4.30;99.90;;;;;;5052287;28;20199;-62
2021/01/23 04:31:55;;;;;;;3.57;1.50;;;4.40;99.90;;;;;;5052312;28;20207;-64
2021/01/23 04:34:22;;;;;;;4.37;1.57;;;4.40;99.90;;;;;;5052226;28;20276;-63
2021/01/23 04:36:48;;;;;;;6.47;1.57;;;4.40;99.90;;;;;;5052345;28;20278;-63
2021/01/23 04:39:14;;;;;;;8.33;1.70;;;4.40;99.90;;;;;;5052286;28;20234;-65
2021/01/23 04:41:41;;;;;;;3.40;1.53;;;4.40;99.90;;;;;;5051860;28;20231;-63
2021/01/23 04:44:07;;;;;;;4.93;1.90;;;4.50;99.90;;;;;;5052253;28;20233;-64
2021/01/23 04:46:35;;;;;;;3.50;1.80;;;4.50;99.90;;;;;;5052116;28;20219;-64
2021/01/23 04:49:03;;;;;;;3.63;2.00;;;4.50;99.90;;;;;;5051577;28;20374;-63
2021/01/23 04:51:29;;;;;;;4.90;1.90;;;4.50;99.90;;;;;;5052428;28;20191;-64
2021/01/23 04:53:56;;;;;;;3.63;1.67;;;4.50;99.90;;;;;;5051603;28;20218;-64
2021/01/23 04:56:25;;;;;;;3.23;1.83;;;4.50;99.90;;;;;;5052889;28;20199;-63
2021/01/23 04:58:52;;;;;;;4.37;2.03;;;4.50;99.90;;;;;;5052024;28;20195;-63
2021/01/23 05:01:18;;;;;;;4.57;1.80;;;4.50;99.90;;;;;;5051637;28;20231;-64
2021/01/23 05:03:55;;;;;;;5.67;2.10;;;4.50;99.90;;;;;;5051711;28;20584;-62
2021/01/23 05:06:21;;;;;;;4.17;1.97;;;4.50;99.90;;;;;;5051353;28;20313;-66
2021/01/23 05:08:48;;;;;;;3.90;1.90;;;4.60;99.90;;;;;;5051477;28;20317;-64
2021/01/23 05:11:14;;;;;;;6.50;1.70;;;4.60;99.90;;;;;;5051707;28;20265;-63
2021/01/23 05:13:44;;;;;;;3.67;1.43;;;4.50;99.90;;;;;;5051697;28;20227;-64
2021/01/23 05:16:24;;;;;;;4.67;1.47;;;4.50;99.90;;;;;;5050766;28;20547;-61
2021/01/23 05:19:01;;;;;;;2.70;1.40;;;4.60;99.90;;;;;;5051267;28;20219;-64
2021/01/23 05:21:28;;;;;;;5.77;1.00;;;4.60;99.90;;;;;;5051176;28;20268;-63
2021/01/23 05:24:09;;;;;;;3.13;1.10;;;4.70;99.90;;;;;;5051582;28;20226;-65
2021/01/23 05:26:36;;;;;;;5.63;1.20;;;4.70;99.90;;;;;;5050774;28;20278;-62
2021/01/23 05:29:10;;;;;;;3.90;1.00;;;4.70;99.90;;;;;;5051255;28;20256;-65
2021/01/23 05:31:37;;;;;;;3.77;0.80;;;4.70;99.90;;;;;;5049606;28;20263;-64
2021/01/23 05:34:26;;;;;;;2.30;0.80;;;4.70;99.90;;;;;;5050509;28;20262;-62
2021/01/23 05:36:53;;;;;;;5.67;1.00;;;4.70;99.90;;;;;;5051044;28;20184;-63
2021/01/23 05:39:20;;;;;;;2.87;0.97;;;4.70;99.90;;;;;;5051260;28;20602;-63
2021/01/23 05:42:05;;;;;;;7.20;1.10;;;4.70;99.90;;;;;;5050973;28;20190;-64
2021/01/23 05:44:31;;;;;;;5.20;1.20;;;4.60;99.90;;;;;;5050604;28;20659;-62
2021/01/23 05:46:58;;;;;;;4.23;1.20;;;4.70;99.90;;;;;;5051357;28;20238;-64
2021/01/23 05:49:25;;;;;;;4.13;1.20;;;4.80;99.90;;;;;;5051831;28;20277;-65
2021/01/23 05:51:52;;;;;;;6.67;1.37;;;4.80;99.90;;;;;;5051150;28;20192;-63
2021/01/23 05:54:18;;;;;;;4.33;1.20;;;4.80;99.90;;;;;;5051387;28;20607;-65
2021/01/23 05:56:47;;;;;;;11.83;2.43;;;4.90;99.90;;;;;;5050858;28;20278;-64
2021/01/23 05:59:13;;;;;;;5.03;1.13;;;4.90;99.90;;;;;;5050900;28;20195;-65
2021/01/23 06:01:43;;;;;;;5.73;1.30;;;4.90;99.90;;;;;;5050633;28;20675;-66
2021/01/23 06:04:15;;;;;;;6.50;1.50;;;4.90;99.90;;;;;;5050813;28;20219;-64
2021/01/23 06:06:46;;;;;;;7.17;1.40;;;4.90;99.90;;;;;;5051278;28;20240;-66
2021/01/23 06:09:34;;;;;;;2.27;1.03;;;4.90;99.90;;;;;;5050298;28;20629;-65
2021/01/23 06:12:01;;;;;;;4.67;1.50;;;4.80;99.90;;;;;;5049683;28;20211;-65
2021/01/23 06:14:37;;;;;;;4.23;1.13;;;4.80;99.90;;;;;;5050847;28;20268;-62
2021/01/23 06:17:04;;;;;;;5.60;1.10;;;4.70;99.90;;;;;;5049907;28;20290;-62
2021/01/23 06:19:41;;;;;;;10.67;3.00;;;4.60;99.90;;;;;;5050093;28;20703;-64
2021/01/23 06:22:10;;;;;;;7.67;1.50;;;4.60;99.90;;;;;;5050823;28;20230;-64
2021/01/23 06:24:56;;;;;;;5.27;1.33;;;4.50;99.90;;;;;;5050660;28;20211;-64
2021/01/23 06:27:23;;;;;;;7.63;1.60;;;4.50;99.90;;;;;;5050834;28;20266;-63
2021/01/23 06:29:49;;;;;;;6.97;1.40;;;4.40;99.90;;;;;;5050099;28;20228;-64
2021/01/23 06:32:29;;;;;;;5.33;1.30;;;4.40;99.90;;;;;;5049481;28;20227;-64
2021/01/23 06:34:58;;;;;;;5.40;1.20;;;4.30;99.90;;;;;;5050311;28;20287;-66
2021/01/23 06:37:29;;;;;;;9.20;1.90;;;4.30;99.90;;;;;;5050744;28;20356;-63
2021/01/23 06:40:16;;;;;;;7.17;1.77;;;4.40;99.90;;;;;;5050273;28;20270;-66
2021/01/23 06:42:47;;;;;;;7.57;1.70;;;4.40;99.90;;;;;;5050386;28;20207;-65
2021/01/23 06:45:19;;;;;;;7.33;1.30;;;4.40;99.90;;;;;;5050416;28;20622;-67
2021/01/23 06:47:50;;;;;;;6.37;1.17;;;4.40;99.90;;;;;;5050476;28;20250;-63
2021/01/23 06:50:32;;;;;;;6.10;1.50;;;4.50;99.90;;;;;;5051220;28;20227;-65
2021/01/23 06:53:00;;;;;;;5.97;1.97;;;4.40;99.90;;;;;;5050484;28;20215;-63
2021/01/23 06:55:45;;;;;;;5.00;1.47;;;4.50;99.90;;;;;;5051363;28;20273;-64
2021/01/23 06:58:20;;;;;;;7.13;1.40;;;4.50;99.90;;;;;;5050015;28;20667;-65
2021/01/23 07:00:48;;;;;;;7.23;1.60;;;4.50;99.90;;;;;;5050490;28;20245;-64
2021/01/23 07:03:16;;;;;;;10.77;1.70;;;4.50;99.90;;;;;;5049364;28;20234;-65
2021/01/23 07:05:46;;;;;;;8.13;1.67;;;4.50;99.90;;;;;;5051320;28;20314;-65
2021/01/23 07:08:24;;;;;;;11.87;2.17;;;4.50;99.90;;;;;;5050075;28;20231;-66
2021/01/23 07:11:21;;;;;;;7.43;1.63;;;4.50;99.90;;;;;;5050385;28;20685;-65
2021/01/23 07:13:59;;;;;;;8.30;1.63;;;4.50;99.90;;;;;;5038529;28;20301;-66
2021/01/23 07:16:27;;;;;;;7.67;1.93;;;4.50;99.90;;;;;;5050227;28;20400;-62
2021/01/23 07:18:54;;;;;;;12.20;1.80;;;4.50;99.90;;;;;;5050661;28;20537;-64
2021/01/23 07:21:23;;;;;;;10.47;1.70;;;4.50;99.90;;;;;;5050496;28;20254;-63
2021/01/23 07:23:52;;;;;;;6.80;1.63;;;4.50;99.90;;;;;;5049793;28;20235;-63
2021/01/23 07:26:19;;;;;;;9.93;1.87;;;4.50;99.90;;;;;;5049899;28;20199;-63
2021/01/23 07:28:48;;;;;;;9.10;1.60;;;4.60;99.90;;;;;;5050201;28;20235;-65
2021/01/23 07:31:22;;;;;;;10.83;1.73;;;4.60;99.90;;;;;;5053746;28;20191;-62
2021/01/23 07:33:49;;;;;;;12.47;1.63;;;4.60;99.90;;;;;;5053681;28;20231;-65
2021/01/23 07:36:32;;;;;;;6.30;1.40;;;4.60;99.90;;;;;;5053192;28;20282;-63
2021/01/23 07:39:01;;;;;;;11.00;2.10;;;4.60;99.90;;;;;;5054236;28;20272;-66
2021/01/23 07:41:32;;;;;;;8.30;2.03;;;4.60;99.90;;;;;;5053467;28;20542;-65
2021/01/23 07:44:00;;;;;;;4.67;1.00;;;4.60;99.90;;;;;;5053681;28;20247;-64
2021/01/23 07:46:36;;;;;;;4.57;1.40;;;4.50;99.90;;;;;;5053954;28;20250;-64
2021/01/23 07:49:03;;;;;;;9.03;1.80;;;4.50;99.90;;;;;;5053019;28;20214;-65
2021/01/23 07:51:31;;;;;;;5.97;1.13;;;4.50;99.90;;;;;;5051957;28;20202;-65
2021/01/23 07:54:09;;;;;;;10.27;2.10;;;4.50;99.90;;;;;;5053707;28;20222;-64
2021/01/23 07:56:36;;;;;;;12.77;2.40;;;4.50;99.90;;;;;;5053633;28;20271;-63
2021/01/23 07:59:03;;;;;;;8.50;1.93;;;4.60;99.90;;;;;;5052668;28;20230;-62
2021/01/23 08:01:30;;;;;;;10.23;1.70;;;4.60;99.90;;;;;;5053583;28;20282;-64
2021/01/23 08:03:56;;;;;;;5.03;1.40;;;4.70;99.90;;;;;;5053246;28;20314;-64
2021/01/23 08:06:24;;;;;;;12.37;1.83;;;4.70;99.90;;;;;;5053343;28;20282;-64
2021/01/23 08:08:52;;;;;;;5.90;1.50;;;4.80;99.90;;;;;;5053222;28;20302;-67
2021/01/23 08:11:41;;;;;;;9.57;1.80;;;4.80;99.90;;;;;;5053539;28;20215;-64
2021/01/23 08:14:08;;;;;;;8.80;1.80;;;4.80;99.90;;;;;;5053212;28;20278;-64
2021/01/23 08:16:35;;;;;;;12.07;1.87;;;4.80;99.90;;;;;;5053781;28;20618;-65
2021/01/23 08:19:08;;;;;;;16.67;5.07;;;4.70;99.90;;;;;;5052068;28;20234;-63
2021/01/23 08:21:34;;;;;;;14.10;2.07;;;4.70;99.90;;;;;;5052764;28;20208;-66
2021/01/23 08:24:01;;;;;;;8.57;1.30;;;4.70;99.90;;;;;;5053075;28;20722;-65
2021/01/23 08:26:38;;;;;;;12.83;1.73;;;4.70;99.90;;;;;;5052580;28;20224;-66
2021/01/23 08:29:04;;;;;;;6.67;1.27;;;4.80;99.90;;;;;;5052457;28;20199;-63
2021/01/23 08:31:31;;;;;;;7.00;1.60;;;4.80;99.90;;;;;;5052603;28;20199;-66
2021/01/23 08:33:58;;;;;;;12.97;1.87;;;4.80;99.90;;;;;;5053359;28;20219;-65
2021/01/23 08:36:26;;;;;;;5.97;1.70;;;4.90;99.90;;;;;;5052997;28;20282;-65
2021/01/23 08:38:56;;;;;;;9.07;1.80;;;4.90;99.90;;;;;;5048187;28;20192;-64
2021/01/23 08:41:23;;;;;;;14.93;2.20;;;4.90;99.90;;;;;;5052117;28;20249;-64
2021/01/23 08:43:50;;;;;;;8.47;1.97;;;4.90;99.90;;;;;;5052761;28;20253;-64
2021/01/23 08:46:17;;;;;;;8.80;2.10;;;5.00;99.90;;;;;;5052494;28;20297;-66
2021/01/23 08:48:43;;;;;;;7.77;1.53;;;5.00;99.90;;;;;;5052383;28;20223;-66
2021/01/23 08:51:10;;;;;;;10.17;2.07;;;4.90;99.90;;;;;;5052469;28;20199;-63
2021/01/23 08:53:36;;;;;;;14.17;2.60;;;4.90;99.90;;;;;;5051408;28;20321;-64
2021/01/23 08:56:02;;;;;;;11.87;1.90;;;4.90;99.90;;;;;;5052068;28;20226;-65
2021/01/23 08:58:29;;;;;;;11.23;1.70;;;4.80;99.90;;;;;;5052380;28;20274;-66
2021/01/23 09:00:56;;;;;;;9.77;1.63;;;4.70;99.90;;;;;;5052219;28;20237;-62
2021/01/23 09:03:22;;;;;;;8.50;1.80;;;4.70;99.90;;;;;;5052114;28;20334;-66
2021/01/23 09:05:49;;;;;;;8.27;1.70;;;4.60;99.90;;;;;;5052317;28;20219;-65
2021/01/23 09:08:15;;;;;;;16.83;1.83;;;4.60;99.90;;;;;;5051473;28;20253;-64
2021/01/23 09:10:42;;;;;;;9.07;1.70;;;4.60;99.90;;;;;;5051700;28;20239;-62
2021/01/23 09:13:08;;;;;;;9.83;1.90;;;4.50;99.90;;;;;;5051668;28;20279;-64
2021/01/23 09:15:35;;;;;;;10.43;1.97;;;4.50;99.90;;;;;;5051186;28;20223;-65
2021/01/23 09:18:02;;;;;;;6.70;1.53;;;4.50;99.90;;;;;;5051839;28;20198;-63
2021/01/23 09:20:29;;;;;;;9.40;1.40;;;4.50;99.90;;;;;;5052142;28;20191;-64
2021/01/23 09:22:55;;;;;;;10.83;2.10;;;4.40;99.90;;;;;;5051108;28;20302;-65
2021/01/23 09:25:22;;;;;;;7.60;1.73;;;4.40;99.90;;;;;;5051530;28;20672;-64
2021/01/23 09:27:48;;;;;;;9.97;1.83;;;4.40;99.90;;;;;;5051427;28;20192;-62
2021/01/23 09:30:16;;;;;;;8.70;1.70;;;4.40;99.90;;;;;;5051283;28;20235;-67
2021/01/23 09:32:43;;;;;;;6.10;1.30;;;4.40;99.90;;;;;;5050805;28;20200;-64
2021/01/23 09:35:12;;;;;;;8.40;1.70;;;4.40;99.90;;;;;;5051725;28;20223;-67
2021/01/23 09:37:39;;;;;;;10.43;1.93;;;4.40;99.90;;;;;;5050949;28;20214;-64
2021/01/23 09:40:07;;;;;;;12.95;2.30;;;4.40;99.90;;;;;;5049029;28;20529;-67
2021/01/23 09:42:33;;;;;;;6.27;1.50;;;4.40;99.90;;;;;;5051514;28;20288;-64
2021/01/23 09:45:00;;;;;;;8.30;2.13;;;4.40;99.90;;;;;;5050944;28;20644;-66
2021/01/23 09:47:26;;;;;;;12.50;2.00;;;4.40;99.90;;;;;;5051286;28;20206;-64
2021/01/23 09:49:53;;;;;;;11.07;1.70;;;4.40;99.90;;;;;;5051582;28;20196;-66
2021/01/23 09:52:20;;;;;;;16.67;2.07;;;4.40;99.90;;;;;;5050890;28;20220;-64
2021/01/23 09:54:46;;;;;;;13.63;2.07;;;4.50;99.90;;;;;;5051493;28;20180;-67
2021/01/23 09:57:13;;;;;;;13.50;2.17;;;4.50;99.90;;;;;;5051503;28;20568;-67
2021/01/23 09:59:39;;;;;;;11.63;2.00;;;4.50;99.90;;;;;;5050329;28;20195;-68
2021/01/23 10:02:06;;;;;;;13.00;1.90;;;4.50;99.90;;;;;;5050653;28;20211;-68
2021/01/23 10:04:33;;;;;;;8.07;1.60;;;4.60;99.90;;;;;;5046909;28;20593;-66
2021/01/23 10:06:59;;;;;;;14.83;2.60;;;4.60;99.90;;;;;;5043517;28;20213;-65
2021/01/23 10:09:27;;;;;;;7.80;1.57;;;4.70;99.90;;;;;;5051127;28;20238;-65
2021/01/23 10:11:55;;;;;;;10.63;1.80;;;4.70;99.90;;;;;;5050813;28;20291;-65
2021/01/23 10:14:21;;;;;;;7.77;1.70;;;4.80;99.90;;;;;;5051874;28;20199;-66
2021/01/23 10:16:47;;;;;;;10.60;1.57;;;4.80;99.90;;;;;;5050805;28;20198;-65
2021/01/23 10:19:14;;;;;;;9.10;1.70;;;4.80;99.90;;;;;;5051175;28;20253;-64
2021/01/23 10:21:41;;;;;;;12.73;2.30;;;4.80;99.90;;;;;;5050835;28;20253;-66
2021/01/23 10:24:10;;;;;;;5.07;1.30;;;4.90;99.90;;;;;;5051445;28;20552;-64
2021/01/23 10:26:37;;;;;;;10.67;2.10;;;4.90;99.90;;;;;;5051216;28;20278;-66
2021/01/23 10:29:04;;;;;;;5.83;1.63;;;4.90;99.90;;;;;;5051259;28;20665;-65
2021/01/23 10:31:30;;;;;;;8.40;1.87;;;5.00;99.90;;;;;;5050942;28;20227;-65
2021/01/23 10:33:57;;;;;;;7.03;1.80;;;5.00;99.90;;;;;;5050949;28;20250;-66
2021/01/23 10:36:23;;;;;;;15.33;3.50;;;5.00;99.90;;;;;;5045859;28;20200;-64
2021/01/23 10:38:50;;;;;;;4.20;1.33;;;5.00;99.90;;;;;;5032603;28;20235;-63
2021/01/23 10:41:16;;;;;;;10.20;1.63;;;5.10;99.90;;;;;;5050867;28;20657;-64
2021/01/23 10:43:43;;;;;;;12.47;1.77;;;5.10;99.90;;;;;;5050762;28;20370;-65
2021/01/23 10:46:10;;;;;;;5.60;1.67;;;5.10;99.90;;;;;;5050402;28;20626;-68
2021/01/23 10:48:37;;;;;;;6.40;1.60;;;5.10;99.90;;;;;;5048411;28;20672;-65
2021/01/23 10:51:04;;;;;;;6.70;1.60;;;5.20;99.90;;;;;;5047308;28;20282;-64
2021/01/23 10:53:31;;;;;;;10.33;1.80;;;5.10;99.90;;;;;;5049672;28;20709;-64
2021/01/23 10:55:58;;;;;;;7.90;1.60;;;5.10;99.90;;;;;;5043555;28;20198;-64
2021/01/23 10:58:24;;;;;;;16.23;1.97;;;5.10;99.90;;;;;;5048798;28;20655;-62
2021/01/23 11:00:51;;;;;;;9.60;1.70;;;5.10;99.90;;;;;;5050848;28;20195;-65
2021/01/23 11:03:18;;;;;;;11.53;1.87;;;5.10;99.90;;;;;;5048210;28;20258;-66
2021/01/23 11:05:45;;;;;;;7.60;1.40;;;5.10;99.90;;;;;;5051308;28;20219;-63
2021/01/23 11:08:11;;;;;;;8.33;1.73;;;5.10;99.90;;;;;;5053952;28;20705;-65
2021/01/23 11:10:38;;;;;;;14.03;1.90;;;5.10;99.90;;;;;;5052897;28;20236;-67
2021/01/23 11:13:05;;;;;;;7.40;1.33;;;5.10;99.90;;;;;;5054324;28;20234;-64
2021/01/23 11:15:31;;;;;;;11.53;1.77;;;5.10;99.90;;;;;;5054077;28;20187;-63
2021/01/23 11:17:58;;;;;;;7.47;1.60;;;5.10;99.90;;;;;;5053283;28;20204;-63
2021/01/23 11:20:26;;;;;;;9.03;1.93;;;5.20;99.90;;;;;;5053683;28;20227;-65
2021/01/23 11:22:52;;;;;;;12.30;2.00;;;5.20;99.90;;;;;;5053047;28;20238;-64
2021/01/23 11:25:19;;;;;;;9.63;1.80;;;5.20;99.90;;;;;;5053514;28;20267;-64
2021/01/23 11:27:45;;;;;;;10.53;1.50;;;5.20;99.90;;;;;;5054084;28;20196;-64
2021/01/23 11:30:13;;;;;;;9.93;2.00;;;5.20;99.90;;;;;;5054231;28;20222;-66
2021/01/23 11:32:39;;;;;;;12.00;1.83;;;5.20;99.90;;;;;;5054585;28;20292;-67
2021/01/23 11:35:08;;;;;;;11.20;1.63;;;5.30;99.90;;;;;;5053895;28;20229;-67
2021/01/23 11:37:35;;;;;;;10.03;2.03;;;5.20;99.90;;;;;;5054078;28;20596;-66
2021/01/23 11:40:02;;;;;;;9.83;1.63;;;5.20;99.90;;;;;;5054519;28;20768;-64
2021/01/23 11:42:28;;;;;;;12.33;2.20;;;5.20;99.90;;;;;;5053873;28;20237;-64
2021/01/23 11:44:55;;;;;;;10.90;2.10;;;5.20;99.90;;;;;;5039928;28;20286;-69
2021/01/23 11:47:21;;;;;;;12.33;1.80;;;5.30;99.90;;;;;;5034454;28;20305;-66
2021/01/23 11:49:47;;;;;;;4.07;1.10;;;5.20;99.90;;;;;;5033945;28;20246;-65
2021/01/23 11:52:15;;;;;;;8.30;1.60;;;5.30;99.90;;;;;;5033971;28;20642;-65
2021/01/23 11:54:41;;;;;;;13.77;2.13;;;5.20;99.90;;;;;;5034112;28;20231;-67
2021/01/23 11:57:08;;;;;;;12.17;2.40;;;5.20;99.90;;;;;;5034128;28;20244;-66
2021/01/23 11:59:35;;;;;;;13.37;2.20;;;5.20;99.90;;;;;;5034076;28;20200;-63
2021/01/23 12:02:01;;;;;;;6.70;1.70;;;5.20;99.90;;;;;;5033694;28;20239;-64
2021/01/23 12:04:28;;;;;;;9.80;1.70;;;5.20;99.90;;;;;;5034210;28;20271;-64
2021/01/23 12:06:55;;;;;;;15.03;1.70;;;5.10;99.90;;;;;;5033433;28;20192;-65
2021/01/23 12:09:22;;;;;;;7.67;1.70;;;5.10;99.90;;;;;;5033520;28;20251;-64
2021/01/23 12:11:49;;;;;;;9.30;1.73;;;5.10;99.90;;;;;;5033130;28;20227;-64
2021/01/23 12:14:15;;;;;;;7.90;2.00;;;5.10;99.90;;;;;;5033118;28;20239;-66
2021/01/23 12:16:42;;;;;;;9.17;2.10;;;5.10;99.90;;;;;;5032445;28;20284;-66
2021/01/23 12:19:08;;;;;;;8.80;1.50;;;5.10;99.90;;;;;;5033046;28;20204;-65
2021/01/23 12:21:35;;;;;;;16.00;2.50;;;5.10;99.90;;;;;;5033382;28;20196;-65
2021/01/23 12:24:01;;;;;;;9.30;1.50;;;5.10;99.90;;;;;;5032867;28;20708;-65
2021/01/23 12:26:29;;;;;;;8.67;2.03;;;5.10;99.90;;;;;;5033026;28;20202;-66
2021/01/23 12:28:55;;;;;;;7.93;1.80;;;5.10;99.90;;;;;;5032776;28;20295;-67
2021/01/23 12:31:22;;;;;;;9.60;2.10;;;5.10;99.90;;;;;;5032859;28;20271;-65
2021/01/23 12:33:48;;;;;;;16.40;2.13;;;5.10;99.90;;;;;;5032747;28;20709;-66
2021/01/23 12:36:15;;;;;;;12.13;1.70;;;5.10;99.90;;;;;;5033306;28;20204;-64
2021/01/23 12:38:41;;;;;;;12.63;1.90;;;5.10;99.90;;;;;;5032541;28;20235;-64
2021/01/23 12:41:08;;;;;;;10.57;2.30;;;5.10;99.90;;;;;;5052378;28;20249;-65
2021/01/23 12:43:35;;;;;;;10.50;1.90;;;5.10;99.90;;;;;;5052141;28;20254;-64
2021/01/23 12:46:01;;;;;;;11.13;2.00;;;5.00;99.90;;;;;;5052830;28;20214;-66
2021/01/23 12:48:28;;;;;;;12.13;1.57;;;5.00;99.90;;;;;;5052611;28;20251;-64
2021/01/23 12:50:54;;;;;;;10.27;1.87;;;5.00;99.90;;;;;;5052679;28;20230;-63
2021/01/23 12:53:21;;;;;;;12.70;1.93;;;5.00;99.90;;;;;;5052151;28;20723;-65
2021/01/23 12:55:47;;;;;;;10.60;1.97;;;5.00;99.90;;;;;;5052316;28;20261;-65
2021/01/23 12:58:14;;;;;;;13.67;1.90;;;5.00;99.90;;;;;;5052221;28;20233;-64
2021/01/23 13:00:43;;;;;;;13.53;1.87;;;5.00;99.90;;;;;;5051951;28;20230;-64
2021/01/23 13:03:09;;;;;;;9.50;1.30;;;4.90;99.90;;;;;;5052076;28;20215;-64